Waldo, Wisconsin
Current Conditions -  °F | °C
As of 12:53 PM on Sunday 23 Nov 2014 (Local Time) from KSBM Reporting Station
Light Rain Light Rain  
Wind Chill: 43°   Ceiling: 500
Heat Index: 47°   Visibility: 3mi
Dew Point: 45°   Wind: 9mph
Humidity: 93%   Direction: 170°S
Pressure: 29.54"   Gusts: NA
Location:  43.67°N, 87.95°W
Report Text: KSBM 231853Z AUTO 17008KT 3SM -RA BR BKN005 BKN060 OVC080 08/07 A2954 RMK AO2 PRESFR SLP006 P0006 T00830072
Loading
Personal Weather Stations






























Interactive Weather Map New forecast layout! Learn more

10-Day Weather Forecast

Advertisements
Track Severe Weather on mobile